Terminal Aerodrome Forecast
Issued by NWS

Home | Current Version | Previous Version | Text Only | Print | Product List | Glossary Off
Versions: 1 2 3 4 5 6 7 8 9 10 11 12 13 14 15 16 17

832
FTUS43 KGRB 141237 AAA
TAFCWA
TAF AMD
KCWA 141237Z 1413/1512 27005KT P6SM SCT004
      TEMPO 1413/1415 BKN004
     FM141500 27003KT P6SM SKC
     FM150700 VRB03KT 5SM BR SKC=

USA.gov is the U.S. government's official web portal to all federal, state and local government web resources and services.